createdAt,value
2022-11-24T00:03:27.781Z,8.00
2022-11-24T00:08:30.748Z,8.80
2022-11-24T00:13:35.117Z,8.80
2022-11-24T00:18:38.108Z,8.00
2022-11-24T00:23:41.048Z,9.20
2022-11-24T00:28:45.927Z,7.60
2022-11-24T00:33:51.076Z,7.80
2022-11-24T00:38:54.653Z,9.00
2022-11-24T00:43:59.080Z,8.80
2022-11-24T00:49:01.939Z,8.00
2022-11-24T00:54:06.353Z,7.40
2022-11-24T00:59:10.562Z,7.40
2022-11-24T01:04:13.462Z,8.00
2022-11-24T01:09:16.324Z,8.40
2022-11-24T01:14:20.727Z,8.00
2022-11-24T01:19:23.716Z,8.00
2022-11-24T01:24:26.788Z,7.00
2022-11-24T01:29:31.224Z,7.40
2022-11-24T01:34:34.187Z,8.00
2022-11-24T01:39:37.197Z,7.60
2022-11-24T01:44:42.477Z,7.00
2022-11-24T01:49:46.961Z,7.00
2022-11-24T01:54:51.135Z,6.00
2022-11-24T01:59:57.062Z,7.00
2022-11-24T02:05:02.944Z,7.60
2022-11-24T02:10:08.266Z,7.00
2022-11-24T02:15:12.715Z,6.40
2022-11-24T02:20:15.637Z,7.00
2022-11-24T02:25:24.390Z,7.00
2022-11-24T02:30:28.669Z,6.00
2022-11-24T02:35:31.544Z,7.00
2022-11-24T02:40:34.376Z,6.20
2022-11-24T02:45:38.764Z,7.00
2022-11-24T02:50:41.605Z,7.60
2022-11-24T02:55:44.538Z,6.80
2022-11-24T03:00:48.789Z,6.00
2022-11-24T03:05:51.686Z,6.80
2022-11-24T03:10:54.706Z,6.00
2022-11-24T03:15:58.933Z,5.40
2022-11-24T03:21:01.836Z,7.00
2022-11-24T03:26:09.010Z,5.80
2022-11-24T03:31:13.384Z,5.20
2022-11-24T03:36:16.797Z,5.80
2022-11-24T03:41:19.626Z,6.20
2022-11-24T03:46:23.886Z,6.00
2022-11-24T03:51:26.765Z,5.20
2022-11-24T03:56:29.806Z,6.00
2022-11-24T04:01:34.043Z,5.60
2022-11-24T04:06:36.902Z,5.00
2022-11-24T04:11:56.953Z,5.80
2022-11-24T04:17:01.133Z,6.00
2022-11-24T04:22:03.942Z,5.40
2022-11-24T04:27:06.925Z,5.40
2022-11-24T04:32:11.227Z,5.00
2022-11-24T04:37:14.094Z,5.60
2022-11-24T04:42:17.036Z,5.00
2022-11-24T04:47:23.626Z,5.80
2022-11-24T04:52:26.634Z,3.00
2022-11-24T04:57:29.628Z,6.00
2022-11-24T05:02:33.849Z,5.00
2022-11-24T05:07:36.890Z,5.00
2022-11-24T05:12:39.776Z,5.00
2022-11-24T05:17:43.955Z,5.00
2022-11-24T05:22:46.743Z,5.00
2022-11-24T05:27:49.570Z,5.40
2022-11-24T05:32:53.857Z,5.00
2022-11-24T05:37:56.825Z,4.20
2022-11-24T05:42:59.603Z,5.00
2022-11-24T05:48:07.240Z,3.00
2022-11-24T05:53:11.144Z,5.00
2022-11-24T05:58:14.002Z,4.80
2022-11-24T06:03:18.193Z,3.00
2022-11-24T06:08:21.013Z,6.00
2022-11-24T06:13:23.884Z,3.00
2022-11-24T06:18:28.118Z,3.00
2022-11-24T06:23:31.056Z,4.60
2022-11-24T06:28:33.820Z,3.00
2022-11-24T06:33:38.787Z,5.00
2022-11-24T06:38:41.505Z,3.00
2022-11-24T06:43:44.470Z,3.00
2022-11-24T06:48:48.682Z,3.80
2022-11-24T06:53:51.506Z,3.80
2022-11-24T06:58:54.537Z,3.80
2022-11-24T07:03:59.078Z,3.80
2022-11-24T07:09:02.026Z,5.00
2022-11-24T07:14:04.931Z,3.80
2022-11-24T07:19:09.984Z,4.00
2022-11-24T07:24:12.890Z,4.20
2022-11-24T07:29:15.695Z,4.80
2022-11-24T07:34:19.792Z,4.00
2022-11-24T07:39:22.557Z,3.80
2022-11-24T07:44:25.436Z,4.00
2022-11-24T07:49:29.557Z,3.20
2022-11-24T07:54:32.789Z,9.00
2022-11-24T07:59:35.813Z,6.00
2022-11-24T08:04:39.954Z,5.00
2022-11-24T08:09:42.723Z,4.00
2022-11-24T08:14:45.554Z,5.00
2022-11-24T08:19:49.699Z,3.20
2022-11-24T08:24:52.466Z,4.00
2022-11-24T08:29:55.282Z,4.00
2022-11-24T08:35:08.561Z,3.60
2022-11-24T08:40:16.882Z,2.00
2022-11-24T08:45:21.613Z,4.00
2022-11-24T08:50:27.309Z,2.80
2022-11-24T08:55:30.188Z,2.20
2022-11-24T09:00:33.150Z,2.00
2022-11-24T09:05:51.844Z,1.00
2022-11-24T09:10:55.275Z,1.80
2022-11-24T09:15:58.053Z,2.00
2022-11-24T09:21:11.714Z,1.20
2022-11-24T09:26:15.811Z,2.00
2022-11-24T09:31:18.870Z,2.00
2022-11-24T09:36:23.248Z,1.00
2022-11-24T09:41:36.992Z,1.40
2022-11-24T09:46:43.685Z,1.60
2022-11-24T09:51:48.310Z,1.20
2022-11-24T09:56:51.481Z,1.80
2022-11-24T10:01:54.436Z,2.00
2022-11-24T10:07:01.232Z,1.60
2022-11-24T10:12:10.320Z,1.80
2022-11-24T10:17:18.885Z,1.00
2022-11-24T10:22:32.065Z,1.00
2022-11-24T10:27:35.961Z,2.00
2022-11-24T10:32:39.150Z,1.00
2022-11-24T10:37:44.594Z,1.00
2022-11-24T10:42:48.846Z,1.00
2022-11-24T10:47:51.685Z,1.40
2022-11-24T10:53:01.629Z,1.00
2022-11-24T10:58:15.749Z,1.00
2022-11-24T11:03:19.451Z,1.20
2022-11-24T11:08:25.770Z,1.00
2022-11-24T11:13:29.270Z,1.80
2022-11-24T11:18:33.160Z,1.40
2022-11-24T11:23:37.320Z,1.00
2022-11-24T11:28:40.152Z,1.00
2022-11-24T11:39:08.310Z,1.00
2022-11-24T11:44:16.510Z,1.00
2022-11-24T11:49:19.367Z,1.00
2022-11-24T11:54:28.337Z,0.40
2022-11-24T11:59:44.443Z,1.00
2022-11-24T12:04:49.913Z,1.00
2022-11-24T12:09:58.386Z,1.00
2022-11-24T12:15:10.315Z,1.00
2022-11-24T12:20:23.952Z,1.00
2022-11-24T12:25:29.669Z,1.00
2022-11-24T12:30:34.592Z,1.00
2022-11-24T12:35:38.251Z,1.00
2022-11-24T12:40:50.443Z,0.60
2022-11-24T12:45:57.010Z,0.20
2022-11-24T12:50:59.819Z,0.20
2022-11-24T12:56:08.288Z,1.00
2022-11-24T13:01:16.953Z,0.40
2022-11-24T13:06:21.516Z,0.80
2022-11-24T13:11:40.113Z,0.60
2022-11-24T13:17:21.748Z,1.00
2022-11-24T13:22:19.370Z,1.00
2022-11-24T13:27:46.572Z,1.00
2022-11-24T13:33:02.183Z,0.00
2022-11-24T13:38:05.289Z,1.00
2022-11-24T13:43:24.934Z,0.00
2022-11-24T13:48:57.242Z,1.00
2022-11-24T13:54:01.056Z,0.00
2022-11-24T13:59:16.844Z,1.00
2022-11-24T14:04:35.747Z,0.00
2022-11-24T14:09:41.871Z,0.60
2022-11-24T14:14:46.600Z,0.00
2022-11-24T14:19:50.094Z,0.00
2022-11-24T14:24:54.037Z,0.60
2022-11-24T14:29:59.052Z,1.00
2022-11-24T14:35:01.995Z,0.80
2022-11-24T14:40:05.619Z,0.60
2022-11-24T14:45:18.049Z,1.00
2022-11-24T14:50:20.878Z,0.00
2022-11-24T14:55:25.489Z,0.80
2022-11-24T15:00:30.891Z,0.00
2022-11-24T15:05:52.320Z,0.80
2022-11-24T15:10:59.954Z,0.00
2022-11-24T15:16:05.784Z,0.40
2022-11-24T15:21:10.022Z,1.00
2022-11-24T15:26:31.272Z,0.00
2022-11-24T15:31:37.548Z,0.00
2022-11-24T15:36:40.384Z,0.40
2022-11-24T15:41:43.200Z,0.00
2022-11-24T15:46:47.387Z,0.00
2022-11-24T15:51:50.189Z,1.00
2022-11-24T15:56:53.149Z,0.00
2022-11-24T16:01:57.455Z,0.00
2022-11-24T16:07:00.746Z,0.00
2022-11-24T16:12:04.141Z,0.20
2022-11-24T16:17:08.435Z,1.00
2022-11-24T16:22:11.242Z,0.00
2022-11-24T16:27:14.205Z,0.00
2022-11-24T16:32:18.622Z,0.00
2022-11-24T16:37:22.043Z,0.00
2022-11-24T16:42:25.053Z,0.00
2022-11-24T16:47:29.362Z,0.40
2022-11-24T16:52:32.348Z,0.80
2022-11-24T16:57:35.182Z,0.60
2022-11-24T17:02:39.712Z,0.40
2022-11-24T17:07:42.940Z,6.00
2022-11-24T17:12:46.132Z,8.20
2022-11-24T17:18:22.235Z,19.00
2022-11-24T17:23:13.189Z,33.00
2022-11-24T17:28:16.094Z,40.75
2022-11-24T17:33:20.283Z,42.00
2022-11-24T17:38:23.120Z,43.00
2022-11-24T17:43:25.942Z,43.00
2022-11-24T17:48:30.671Z,43.00
2022-11-24T17:53:33.458Z,44.75
2022-11-24T17:58:42.531Z,42.00
2022-11-24T18:03:50.472Z,41.00
2022-11-24T18:08:57.343Z,41.00
2022-11-24T18:14:01.969Z,40.00
2022-11-24T18:19:10.987Z,37.50
2022-11-24T18:24:17.513Z,38.50
2022-11-24T18:29:23.921Z,36.00
2022-11-24T18:34:28.043Z,35.50
2022-11-24T18:39:31.047Z,34.75
2022-11-24T18:44:34.056Z,35.00
2022-11-24T18:49:38.344Z,33.00
2022-11-24T18:54:41.809Z,32.50
2022-11-24T18:59:44.670Z,31.75
2022-11-24T19:04:48.883Z,32.00
2022-11-24T19:09:51.674Z,32.00
2022-11-24T19:14:55.473Z,31.50
2022-11-24T19:19:59.623Z,31.67
2022-11-24T19:25:02.639Z,31.75
2022-11-24T19:30:06.387Z,30.00
2022-11-24T19:35:10.972Z,29.67
2022-11-24T19:40:14.915Z,28.00
2022-11-24T19:45:17.995Z,28.00
2022-11-24T19:50:22.132Z,27.67
2022-11-24T19:55:25.061Z,27.33
2022-11-24T20:00:31.805Z,27.00
2022-11-24T20:05:36.229Z,27.00
2022-11-24T20:10:42.386Z,26.00
2022-11-24T20:15:45.394Z,26.00
2022-11-24T20:20:49.506Z,25.00
2022-11-24T20:25:52.287Z,25.00
2022-11-24T20:30:55.240Z,25.00
2022-11-24T20:36:04.594Z,24.50
2022-11-24T20:41:09.400Z,22.75
2022-11-24T20:46:13.285Z,23.25
2022-11-24T20:51:18.483Z,23.00
2022-11-24T20:56:22.305Z,23.50
2022-11-24T21:01:38.541Z,22.75
2022-11-24T21:06:42.781Z,21.00
2022-11-24T21:11:45.589Z,22.00
2022-11-24T21:16:48.384Z,19.75
2022-11-24T21:21:52.587Z,21.00
2022-11-24T21:26:55.331Z,20.00
2022-11-24T21:31:58.176Z,21.50
2022-11-24T21:37:02.404Z,20.00
2022-11-24T21:42:05.599Z,19.00
2022-11-24T21:47:08.447Z,18.75
2022-11-24T21:52:12.563Z,19.25
2022-11-24T21:57:15.377Z,18.25
2022-11-24T22:02:18.223Z,17.25
2022-11-24T22:07:22.529Z,19.75
2022-11-24T22:12:25.440Z,19.25
2022-11-24T22:17:31.172Z,17.00
2022-11-24T22:22:35.342Z,17.50
2022-11-24T22:27:38.136Z,18.25
2022-11-24T22:32:41.070Z,16.00
2022-11-24T22:37:45.177Z,17.25
2022-11-24T22:42:47.939Z,16.00
2022-11-24T22:47:54.714Z,16.75
2022-11-24T22:52:58.978Z,16.25
2022-11-24T22:58:01.940Z,16.50
2022-11-24T23:03:04.974Z,16.60
2022-11-24T23:08:09.143Z,16.00
2022-11-24T23:13:11.923Z,16.00
2022-11-24T23:18:14.956Z,15.40
2022-11-24T23:23:19.091Z,16.80
2022-11-24T23:28:21.871Z,14.80
2022-11-24T23:33:24.759Z,16.00
2022-11-24T23:38:30.134Z,16.00
2022-11-24T23:43:32.927Z,14.00
2022-11-24T23:48:35.934Z,14.80
2022-11-24T23:53:40.336Z,15.00
2022-11-24T23:58:43.326Z,14.20
